createdAt,value
2022-12-31T00:02:36.936Z,0.93
2022-12-31T00:05:04.506Z,2.00
2022-12-31T00:10:01.122Z,1.63
2022-12-31T00:12:31.985Z,2.08
2022-12-31T00:15:07.280Z,2.28
2022-12-31T00:17:35.662Z,2.38
2022-12-31T00:20:06.595Z,1.40
2022-12-31T00:22:33.416Z,1.87
2022-12-31T00:25:37.854Z,3.35
2022-12-31T00:28:06.291Z,2.65
2022-12-31T00:30:45.609Z,2.22
2022-12-31T00:33:12.041Z,2.55
2022-12-31T00:35:38.431Z,2.33
2022-12-31T00:38:05.828Z,2.05
2022-12-31T00:40:32.197Z,2.20
2022-12-31T00:42:58.571Z,4.25
2022-12-31T00:45:24.937Z,2.20
2022-12-31T00:47:51.319Z,2.50
2022-12-31T00:50:19.760Z,1.45
2022-12-31T00:52:51.178Z,3.10
2022-12-31T00:55:17.554Z,2.25
2022-12-31T00:58:11.818Z,2.13
2022-12-31T01:00:38.829Z,1.70
2022-12-31T01:03:21.605Z,1.83
2022-12-31T01:05:50.484Z,1.45
2022-12-31T01:08:18.269Z,1.20
2022-12-31T01:11:09.115Z,1.77
2022-12-31T01:14:05.043Z,4.50
2022-12-31T01:16:39.690Z,2.47
2022-12-31T01:19:15.798Z,2.00
2022-12-31T01:21:44.665Z,1.88
2022-12-31T01:24:12.061Z,1.45
2022-12-31T01:26:47.055Z,1.60
2022-12-31T01:29:21.518Z,3.88
2022-12-31T01:31:53.058Z,2.55
2022-12-31T01:34:20.506Z,2.50
2022-12-31T01:37:29.545Z,1.75
2022-12-31T01:40:08.620Z,2.03
2022-12-31T01:42:34.983Z,1.85
2022-12-31T01:45:10.727Z,3.33
2022-12-31T01:47:48.197Z,1.35
2022-12-31T01:50:28.745Z,2.45
2022-12-31T01:53:02.432Z,3.50
2022-12-31T01:55:58.751Z,4.43
2022-12-31T01:58:34.418Z,2.53
2022-12-31T02:01:19.611Z,2.13
2022-12-31T02:03:46.088Z,4.32
2022-12-31T02:06:23.996Z,3.10
2022-12-31T02:08:51.369Z,3.58
2022-12-31T02:11:39.961Z,3.03
2022-12-31T02:14:21.060Z,2.35
2022-12-31T02:17:06.179Z,3.00
2022-12-31T02:19:52.822Z,1.80
2022-12-31T02:22:48.411Z,3.03
2022-12-31T02:25:42.843Z,3.30
2022-12-31T02:28:47.195Z,2.38
2022-12-31T02:31:58.017Z,3.42
2022-12-31T02:34:50.755Z,10.87
2022-12-31T02:37:30.209Z,6.10
2022-12-31T02:40:09.897Z,12.57
2022-12-31T02:42:48.641Z,6.10
2022-12-31T02:45:29.609Z,9.82
2022-12-31T02:48:21.590Z,6.37
2022-12-31T02:51:28.783Z,1.30
2022-12-31T02:54:07.077Z,3.55
2022-12-31T02:56:45.800Z,2.65
2022-12-31T02:59:53.076Z,2.08
2022-12-31T03:02:23.800Z,2.50
2022-12-31T03:04:57.182Z,1.17
2022-12-31T03:07:43.840Z,2.65
2022-12-31T03:10:10.595Z,2.53
2022-12-31T03:12:46.940Z,1.23
2022-12-31T03:15:28.830Z,1.57
2022-12-31T03:18:02.178Z,1.80
2022-12-31T03:20:55.877Z,2.00
2022-12-31T03:23:33.225Z,1.17
2022-12-31T03:26:11.278Z,1.33
2022-12-31T03:28:50.034Z,3.63
2022-12-31T03:31:16.663Z,2.15
2022-12-31T03:33:47.162Z,2.30
2022-12-31T03:36:15.513Z,2.20
2022-12-31T03:38:42.244Z,1.40
2022-12-31T03:41:11.514Z,2.23
2022-12-31T03:43:46.948Z,2.22
2022-12-31T03:46:14.445Z,1.35
2022-12-31T03:48:45.033Z,3.47
2022-12-31T03:51:11.397Z,1.70
2022-12-31T03:53:47.239Z,2.13
2022-12-31T03:56:24.916Z,2.70
2022-12-31T03:58:51.433Z,2.30
2022-12-31T04:01:19.642Z,2.08
2022-12-31T04:03:46.076Z,1.17
2022-12-31T04:06:12.453Z,2.37
2022-12-31T04:08:38.834Z,2.47
2022-12-31T04:11:31.984Z,0.80
2022-12-31T04:14:06.702Z,3.50
2022-12-31T04:16:33.193Z,1.60
2022-12-31T04:19:00.822Z,2.73
2022-12-31T04:21:46.585Z,2.00
2022-12-31T04:24:26.384Z,2.30
2022-12-31T04:27:11.506Z,3.20
2022-12-31T04:29:37.957Z,2.13
2022-12-31T04:32:23.713Z,1.67
2022-12-31T04:34:50.084Z,1.10
2022-12-31T04:37:16.480Z,3.85
2022-12-31T04:39:42.942Z,2.13
2022-12-31T04:42:14.505Z,2.40
2022-12-31T04:44:40.915Z,1.90
2022-12-31T04:47:23.870Z,1.77
2022-12-31T04:49:52.569Z,2.38
2022-12-31T04:52:25.199Z,1.40
2022-12-31T04:54:57.491Z,1.60
2022-12-31T04:57:24.066Z,2.53
2022-12-31T04:59:52.482Z,2.88
2022-12-31T05:02:19.099Z,3.53
2022-12-31T05:04:49.852Z,3.05
2022-12-31T05:07:27.513Z,1.90
2022-12-31T05:09:54.970Z,3.53
2022-12-31T05:12:38.730Z,2.47
2022-12-31T05:15:18.376Z,3.47
2022-12-31T05:17:51.197Z,2.88
2022-12-31T05:20:19.713Z,3.17
2022-12-31T05:22:47.219Z,2.60
2022-12-31T05:25:13.636Z,2.25
2022-12-31T05:27:40.228Z,3.38
2022-12-31T05:30:12.068Z,2.42
2022-12-31T05:32:38.962Z,2.17
2022-12-31T05:35:16.110Z,1.93
2022-12-31T05:37:44.909Z,1.83
2022-12-31T05:40:19.642Z,2.05
2022-12-31T05:42:46.124Z,2.00
2022-12-31T05:45:15.902Z,1.75
2022-12-31T05:47:46.657Z,1.70
2022-12-31T05:50:17.979Z,1.52
2022-12-31T05:52:47.826Z,1.70
2022-12-31T05:55:15.367Z,1.30
2022-12-31T05:58:01.122Z,2.30
2022-12-31T06:00:27.494Z,1.50
2022-12-31T06:02:54.928Z,2.22
2022-12-31T06:05:33.643Z,1.42
2022-12-31T06:08:00.031Z,1.25
2022-12-31T06:10:26.565Z,1.88
2022-12-31T06:12:58.069Z,2.37
2022-12-31T06:15:24.462Z,1.05
2022-12-31T06:17:52.878Z,1.90
2022-12-31T06:20:19.302Z,1.00
2022-12-31T06:22:45.692Z,1.25
2022-12-31T06:25:20.284Z,1.10
2022-12-31T06:27:50.905Z,0.90
2022-12-31T06:30:37.250Z,1.17
2022-12-31T06:33:03.741Z,1.20
2022-12-31T06:35:30.165Z,1.42
2022-12-31T06:38:09.970Z,1.70
2022-12-31T06:40:40.512Z,2.25
2022-12-31T06:43:06.930Z,2.22
2022-12-31T06:45:48.538Z,2.92
2022-12-31T06:48:15.343Z,2.30
2022-12-31T06:50:41.793Z,1.93
2022-12-31T06:53:09.300Z,2.30
2022-12-31T06:55:47.770Z,2.38
2022-12-31T06:58:15.900Z,2.63
2022-12-31T07:01:17.529Z,2.38
2022-12-31T07:03:53.957Z,2.93
2022-12-31T07:06:44.105Z,3.45
2022-12-31T07:09:20.570Z,2.30
2022-12-31T07:12:00.571Z,2.05
2022-12-31T07:14:37.583Z,2.13
2022-12-31T07:17:45.567Z,1.37
2022-12-31T07:20:18.763Z,2.00
2022-12-31T07:22:48.933Z,1.45
2022-12-31T07:25:18.435Z,1.35
2022-12-31T07:28:22.164Z,2.05
2022-12-31T07:31:15.154Z,0.90
2022-12-31T07:34:00.508Z,3.47
2022-12-31T07:36:57.821Z,0.85
2022-12-31T07:40:04.394Z,0.98
2022-12-31T07:43:15.501Z,0.50
2022-12-31T07:50:05.522Z,0.75
2022-12-31T07:52:32.184Z,0.45
2022-12-31T07:54:58.631Z,0.80
2022-12-31T07:57:41.122Z,0.80
2022-12-31T08:00:22.328Z,1.00
2022-12-31T08:02:55.014Z,0.60
2022-12-31T08:05:47.726Z,0.50
2022-12-31T08:08:44.972Z,0.80
2022-12-31T08:11:32.144Z,1.15
2022-12-31T08:14:02.104Z,0.60
2022-12-31T08:16:29.922Z,5.43
2022-12-31T08:18:56.623Z,1.00
2022-12-31T08:22:03.696Z,0.82
2022-12-31T08:25:16.576Z,1.83
2022-12-31T08:28:26.619Z,0.90
2022-12-31T08:31:09.245Z,1.30
2022-12-31T08:33:50.420Z,2.30
2022-12-31T08:36:42.862Z,0.68
2022-12-31T08:39:12.254Z,1.05
2022-12-31T08:41:47.989Z,2.77
2022-12-31T08:44:34.450Z,1.58
2022-12-31T08:47:36.998Z,1.17
2022-12-31T08:50:05.839Z,1.42
2022-12-31T08:52:32.561Z,1.67
2022-12-31T08:54:59.213Z,1.00
2022-12-31T08:57:42.011Z,1.05
2022-12-31T09:00:17.381Z,1.05
2022-12-31T09:03:38.857Z,1.00
2022-12-31T09:06:20.332Z,0.75
2022-12-31T09:09:19.981Z,0.97
2022-12-31T09:12:12.306Z,1.38
2022-12-31T09:14:49.874Z,0.98
2022-12-31T09:17:33.557Z,2.35
2022-12-31T09:20:43.462Z,1.30
2022-12-31T09:23:12.523Z,0.80
2022-12-31T09:26:14.474Z,1.38
2022-12-31T09:29:20.048Z,1.88
2022-12-31T09:31:59.919Z,1.30
2022-12-31T09:34:45.058Z,2.47
2022-12-31T09:37:45.271Z,3.33
2022-12-31T09:40:39.711Z,4.22
2022-12-31T09:43:06.086Z,4.10
2022-12-31T09:46:09.575Z,1.40
2022-12-31T09:49:01.092Z,3.92
2022-12-31T09:52:25.362Z,3.57
2022-12-31T09:55:30.469Z,3.83
2022-12-31T09:58:26.926Z,4.80
2022-12-31T10:01:21.289Z,1.92
2022-12-31T10:04:24.856Z,1.50
2022-12-31T10:07:19.175Z,2.03
2022-12-31T10:09:54.642Z,1.20
2022-12-31T10:12:55.297Z,2.10
2022-12-31T10:15:46.579Z,2.10
2022-12-31T10:18:54.827Z,2.35
2022-12-31T10:21:42.368Z,3.97
2022-12-31T10:24:29.057Z,1.48
2022-12-31T10:27:32.153Z,3.90
2022-12-31T10:30:17.706Z,1.83
2022-12-31T10:33:40.297Z,4.07
2022-12-31T10:36:19.538Z,3.00
2022-12-31T10:39:29.760Z,2.55
2022-12-31T10:42:21.297Z,3.13
2022-12-31T10:44:55.951Z,3.83
2022-12-31T10:48:19.845Z,2.67
2022-12-31T10:51:08.096Z,2.50
2022-12-31T10:54:15.093Z,1.63
2022-12-31T10:57:13.006Z,2.22
2022-12-31T11:00:04.372Z,2.78
2022-12-31T11:02:40.225Z,1.88
2022-12-31T11:05:47.559Z,2.80
2022-12-31T11:08:32.898Z,5.15
2022-12-31T11:11:24.649Z,1.40
2022-12-31T11:14:20.499Z,2.53
2022-12-31T11:17:06.727Z,2.05
2022-12-31T11:20:24.063Z,2.17
2022-12-31T11:23:09.853Z,3.33
2022-12-31T11:26:14.459Z,6.32
2022-12-31T11:29:06.724Z,4.00
2022-12-31T11:32:17.473Z,3.38
2022-12-31T11:34:56.086Z,4.50
2022-12-31T11:37:45.423Z,2.83
2022-12-31T11:41:11.926Z,4.18
2022-12-31T11:44:20.921Z,5.32
2022-12-31T11:47:10.915Z,4.43
2022-12-31T11:50:12.495Z,3.20
2022-12-31T11:52:59.776Z,3.60
2022-12-31T11:55:50.019Z,3.97
2022-12-31T11:58:22.386Z,2.33
2022-12-31T12:01:04.454Z,3.45
2022-12-31T12:03:38.503Z,2.40
2022-12-31T12:06:05.044Z,4.70
2022-12-31T12:08:32.587Z,5.03
2022-12-31T12:11:07.126Z,2.78
2022-12-31T12:13:38.577Z,3.00
2022-12-31T12:16:25.125Z,3.17
2022-12-31T12:19:04.006Z,4.32
2022-12-31T12:21:44.918Z,2.55
2022-12-31T12:24:25.327Z,3.25
2022-12-31T12:26:51.780Z,2.63
2022-12-31T12:29:20.888Z,3.43
2022-12-31T12:32:06.960Z,4.57
2022-12-31T12:34:52.549Z,6.30
2022-12-31T12:37:34.649Z,6.80
2022-12-31T12:40:34.285Z,6.13
2022-12-31T12:43:02.839Z,6.80
2022-12-31T12:45:52.608Z,5.03
2022-12-31T12:48:28.077Z,1.83
2022-12-31T12:51:01.546Z,4.90
2022-12-31T12:53:37.097Z,3.92
2022-12-31T12:56:34.994Z,7.10
2022-12-31T12:59:11.292Z,2.38
2022-12-31T13:02:00.673Z,3.72
2022-12-31T13:04:37.453Z,4.28
2022-12-31T13:07:15.628Z,1.65
2022-12-31T13:10:07.871Z,3.43
2022-12-31T13:13:22.201Z,3.30
2022-12-31T13:15:52.383Z,5.07
2022-12-31T13:18:38.318Z,3.00
2022-12-31T13:21:32.844Z,6.63
2022-12-31T13:24:29.376Z,3.03
2022-12-31T13:27:18.349Z,4.78
2022-12-31T13:29:47.776Z,4.07
2022-12-31T13:32:24.013Z,5.13
2022-12-31T13:34:55.484Z,4.10
2022-12-31T13:37:31.898Z,4.63
2022-12-31T13:40:05.311Z,2.45
2022-12-31T13:42:42.389Z,3.78
2022-12-31T13:45:19.725Z,4.28
2022-12-31T13:47:54.416Z,4.80
2022-12-31T13:50:36.335Z,4.23
2022-12-31T13:53:09.501Z,4.88
2022-12-31T13:55:41.568Z,4.75
2022-12-31T13:58:31.474Z,5.40
2022-12-31T14:01:18.438Z,6.38
2022-12-31T14:04:06.262Z,4.77
2022-12-31T14:06:41.347Z,7.25
2022-12-31T14:09:14.757Z,7.65
2022-12-31T14:11:58.443Z,3.95
2022-12-31T14:15:16.117Z,5.00
2022-12-31T14:18:04.299Z,3.67
2022-12-31T14:20:47.861Z,4.45
2022-12-31T14:23:48.182Z,4.95
2022-12-31T14:26:38.725Z,6.40
2022-12-31T14:29:29.238Z,5.15
2022-12-31T14:32:19.525Z,3.23
2022-12-31T14:35:24.496Z,3.08
2022-12-31T14:38:05.624Z,3.17
2022-12-31T14:40:39.835Z,3.03
2022-12-31T14:43:25.593Z,5.30
2022-12-31T14:46:25.551Z,4.03
2022-12-31T14:49:10.770Z,3.50
2022-12-31T14:51:37.643Z,3.78
2022-12-31T14:54:04.286Z,2.95
2022-12-31T14:56:45.375Z,4.78
2022-12-31T14:59:28.568Z,5.67
2022-12-31T15:01:58.291Z,5.95
2022-12-31T15:04:45.883Z,5.38
2022-12-31T15:07:41.119Z,5.32
2022-12-31T15:10:16.639Z,3.58
2022-12-31T15:13:03.159Z,3.50
2022-12-31T15:15:42.329Z,7.47
2022-12-31T15:18:43.824Z,8.27
2022-12-31T15:21:38.741Z,24.55
2022-12-31T15:24:24.038Z,12.63
2022-12-31T15:26:59.684Z,7.70
2022-12-31T15:29:33.191Z,4.82
2022-12-31T15:32:03.386Z,6.55
2022-12-31T15:34:34.818Z,8.77
2022-12-31T15:37:27.065Z,10.00
2022-12-31T15:40:17.894Z,10.47
2022-12-31T15:43:13.390Z,12.48
2022-12-31T15:45:41.683Z,4.72
2022-12-31T15:48:22.671Z,9.27
2022-12-31T15:50:52.703Z,6.22
2022-12-31T15:53:42.777Z,7.33
2022-12-31T15:56:18.713Z,4.63
2022-12-31T15:58:47.285Z,5.70
2022-12-31T16:01:27.516Z,6.10
2022-12-31T16:04:16.753Z,6.20
2022-12-31T16:06:50.941Z,6.03
2022-12-31T16:09:25.143Z,5.40
2022-12-31T16:11:53.575Z,8.75
2022-12-31T16:14:26.403Z,6.32
2022-12-31T16:16:58.322Z,5.30
2022-12-31T16:19:30.481Z,8.80
2022-12-31T16:22:00.714Z,9.43
2022-12-31T16:24:30.515Z,6.05
2022-12-31T16:27:05.260Z,7.80
2022-12-31T16:29:36.497Z,6.78
2022-12-31T16:32:03.568Z,10.83
2022-12-31T16:34:37.056Z,8.65
2022-12-31T16:37:06.619Z,6.70
2022-12-31T16:39:35.424Z,6.63
2022-12-31T16:42:28.367Z,7.78
2022-12-31T16:44:56.555Z,6.50
2022-12-31T16:47:28.381Z,9.23
2022-12-31T16:50:04.023Z,6.95
2022-12-31T16:52:33.794Z,9.57
2022-12-31T16:55:00.249Z,7.50
2022-12-31T16:57:30.109Z,7.63
2022-12-31T17:00:06.919Z,6.63
2022-12-31T17:02:40.127Z,4.75
2022-12-31T17:05:19.114Z,5.75
2022-12-31T17:07:45.510Z,5.60
2022-12-31T17:10:20.709Z,8.27
2022-12-31T17:13:26.851Z,9.23
2022-12-31T17:15:41.088Z,7.72
2022-12-31T17:18:19.307Z,9.93
2022-12-31T17:20:46.773Z,8.73
2022-12-31T17:23:23.850Z,8.43
2022-12-31T17:25:58.116Z,17.50
2022-12-31T17:28:26.044Z,16.15
2022-12-31T17:30:52.784Z,18.17
2022-12-31T17:33:22.080Z,16.92
2022-12-31T17:35:54.445Z,16.60
2022-12-31T17:38:20.782Z,39.78
2022-12-31T17:40:52.291Z,14.07
2022-12-31T17:43:21.270Z,5.10
2022-12-31T17:45:51.433Z,14.27
2022-12-31T17:48:19.851Z,5.63
2022-12-31T17:50:47.645Z,6.05
2022-12-31T17:53:14.586Z,9.52
2022-12-31T17:55:42.294Z,8.82
2022-12-31T17:58:18.150Z,12.38
2022-12-31T18:00:44.658Z,26.00
2022-12-31T18:03:11.134Z,7.75
2022-12-31T18:05:37.509Z,5.57
2022-12-31T18:08:04.033Z,8.25
2022-12-31T18:10:35.196Z,9.10
2022-12-31T18:13:04.785Z,7.43
2022-12-31T18:15:31.564Z,12.93
2022-12-31T18:17:58.610Z,7.43
2022-12-31T18:20:26.065Z,6.43
2022-12-31T18:22:52.630Z,8.05
2022-12-31T18:25:23.680Z,7.93
2022-12-31T18:27:52.451Z,9.00
2022-12-31T18:30:19.113Z,7.53
2022-12-31T18:32:46.682Z,5.00
2022-12-31T18:38:17.768Z,5.40
2022-12-31T18:40:53.822Z,8.48
2022-12-31T18:43:20.606Z,8.52
2022-12-31T18:45:48.572Z,6.75
2022-12-31T18:48:16.179Z,7.40
2022-12-31T18:50:42.932Z,8.27
2022-12-31T18:53:20.952Z,7.00
2022-12-31T18:55:53.758Z,4.53
2022-12-31T18:58:20.493Z,3.25
2022-12-31T19:00:50.776Z,5.22
2022-12-31T19:03:20.520Z,5.33
2022-12-31T19:05:49.786Z,6.15
2022-12-31T19:08:21.596Z,8.30
2022-12-31T19:10:50.371Z,6.82
2022-12-31T19:13:18.505Z,5.57
2022-12-31T19:15:47.766Z,8.20
2022-12-31T19:18:14.222Z,5.65
2022-12-31T19:20:41.393Z,5.30
2022-12-31T19:23:19.236Z,4.93
2022-12-31T19:25:47.171Z,5.45
2022-12-31T19:28:19.036Z,7.00
2022-12-31T19:30:46.469Z,5.05
2022-12-31T19:33:13.772Z,6.82
2022-12-31T19:35:41.531Z,6.07
2022-12-31T19:38:20.567Z,7.93
2022-12-31T19:40:47.477Z,7.60
2022-12-31T19:43:15.753Z,5.82
2022-12-31T19:45:43.497Z,7.75
2022-12-31T19:48:16.534Z,6.20
2022-12-31T19:50:47.027Z,7.60
2022-12-31T19:53:21.195Z,6.27
2022-12-31T19:55:48.152Z,6.90
2022-12-31T19:58:20.515Z,6.10
2022-12-31T20:00:54.821Z,6.63
2022-12-31T20:03:23.682Z,7.10
2022-12-31T20:05:50.286Z,11.33
2022-12-31T20:08:17.066Z,6.47
2022-12-31T20:10:43.888Z,8.45
2022-12-31T20:13:10.347Z,9.10
2022-12-31T20:15:40.418Z,8.88
2022-12-31T20:18:06.835Z,9.03
2022-12-31T20:20:33.251Z,7.53
2022-12-31T20:22:59.864Z,8.30
2022-12-31T20:25:26.240Z,7.57
2022-12-31T20:27:54.409Z,8.18
2022-12-31T20:30:23.017Z,7.73
2022-12-31T20:32:52.079Z,10.23
2022-12-31T20:35:19.208Z,6.07
2022-12-31T20:37:46.072Z,9.77
2022-12-31T20:40:18.435Z,7.95
2022-12-31T20:42:44.895Z,7.50
2022-12-31T20:45:11.490Z,11.82
2022-12-31T20:47:38.030Z,8.07
2022-12-31T20:50:12.660Z,9.30
2022-12-31T20:52:39.730Z,6.95
2022-12-31T20:55:06.568Z,7.33
2022-12-31T20:57:33.914Z,12.98
2022-12-31T21:00:00.656Z,8.00
2022-12-31T21:02:40.664Z,8.20
2022-12-31T21:05:08.868Z,10.98
2022-12-31T21:07:35.458Z,11.63
2022-12-31T21:10:01.838Z,18.08
2022-12-31T21:12:43.511Z,8.13
2022-12-31T21:15:12.337Z,10.93
2022-12-31T21:17:38.813Z,7.70
2022-12-31T21:20:05.883Z,8.33
2022-12-31T21:22:33.772Z,8.73
2022-12-31T21:25:03.834Z,9.23
2022-12-31T21:27:30.572Z,9.88
2022-12-31T21:32:43.475Z,10.53
2022-12-31T21:38:03.411Z,8.18
2022-12-31T21:40:30.486Z,8.80
2022-12-31T21:42:57.312Z,10.50
2022-12-31T21:45:24.212Z,11.30
2022-12-31T21:48:09.336Z,6.40
2022-12-31T21:50:35.998Z,8.68
2022-12-31T21:53:02.434Z,10.32
2022-12-31T21:55:48.393Z,5.53
2022-12-31T21:58:25.906Z,10.10
2022-12-31T22:01:12.512Z,7.72
2022-12-31T22:03:39.040Z,7.90
2022-12-31T22:06:14.435Z,10.98
2022-12-31T22:08:47.453Z,8.98
2022-12-31T22:11:15.260Z,7.30
2022-12-31T22:13:42.158Z,7.65
2022-12-31T22:16:13.986Z,7.28
2022-12-31T22:18:43.177Z,6.43
2022-12-31T22:21:20.803Z,5.97
2022-12-31T22:23:55.621Z,6.80
2022-12-31T22:26:24.530Z,10.35
2022-12-31T22:28:51.279Z,8.10
2022-12-31T22:31:24.522Z,8.70
2022-12-31T22:33:51.287Z,11.05
2022-12-31T22:36:20.755Z,6.97
2022-12-31T22:38:48.116Z,7.30
2022-12-31T22:41:19.535Z,11.95
2022-12-31T22:43:51.801Z,7.65
2022-12-31T22:46:23.512Z,10.02
2022-12-31T22:48:51.559Z,7.97
2022-12-31T22:51:18.718Z,9.25
2022-12-31T22:53:45.158Z,9.23
2022-12-31T22:56:15.001Z,7.78
2022-12-31T22:58:41.553Z,6.60
2022-12-31T23:01:15.623Z,9.97
2022-12-31T23:03:42.491Z,10.32
2022-12-31T23:06:10.429Z,23.88
2022-12-31T23:08:36.845Z,30.20
2022-12-31T23:11:09.191Z,134.13
2022-12-31T23:13:59.854Z,56.20
2022-12-31T23:16:51.876Z,42.95
2022-12-31T23:19:36.736Z,36.35
2022-12-31T23:22:24.067Z,34.58
2022-12-31T23:24:50.441Z,26.98
2022-12-31T23:27:16.826Z,19.30
2022-12-31T23:29:48.470Z,20.95
2022-12-31T23:32:19.431Z,28.10
2022-12-31T23:34:46.849Z,17.55
2022-12-31T23:37:14.329Z,21.83
2022-12-31T23:39:41.507Z,16.40
2022-12-31T23:42:08.103Z,26.83
2022-12-31T23:44:34.505Z,18.35
2022-12-31T23:47:00.914Z,15.70
2022-12-31T23:49:27.448Z,19.95
2022-12-31T23:51:53.876Z,19.90
2022-12-31T23:54:20.258Z,17.42
2022-12-31T23:56:46.711Z,21.40
2022-12-31T23:59:13.301Z,16.25
